Time;durP1;ratioP1;P1;durP2;ratioP2;P2;SDS_P1;SDS_P2;PMS_P1;PMS_P2;Temp;Humidity;BMP_temperature;BMP_pressure;BME280_temperature;BME280_humidity;BME280_pressure;Samples;Min_cycle;Max_cycle;Signal;HPM_P1;HPM_P2
2022/10/26 00:00:26;;;;;;;1.67;0.85;;;;;;;;;;4968440;28;20518;-84
2022/10/26 00:02:53;;;;;;;2.92;1.35;;;;;;;;;;4971126;28;20062;-84
2022/10/26 00:05:19;;;;;;;3.35;1.45;;;;;;;;;;4974198;28;20438;-84
2022/10/26 00:07:44;;;;;;;4.20;1.50;;;;;;;;;;4973200;28;20019;-84
2022/10/26 00:10:09;;;;;;;1.15;0.95;;;;;;;;;;4974927;28;20105;-84
2022/10/26 00:12:35;;;;;;;9.95;1.60;;;;;;;;;;4961449;28;20084;-85
2022/10/26 00:15:00;;;;;;;4.43;1.98;;;;;;;;;;4970396;28;20105;-85
2022/10/26 00:17:26;;;;;;;7.32;1.33;;;;;;;;;;4972083;28;20035;-86
2022/10/26 00:19:51;;;;;;;2.13;1.38;;;;;;;;;;4972856;28;20390;-85
2022/10/26 00:22:16;;;;;;;3.58;1.00;;;;;;;;;;4973946;28;20490;-89
2022/10/26 00:24:42;;;;;;;1.67;1.23;;;;;;;;;;4965789;28;20063;-88
2022/10/26 00:27:07;;;;;;;3.17;1.13;;;;;;;;;;4973265;28;20038;-86
2022/10/26 00:29:33;;;;;;;5.82;1.52;;;;;;;;;;4966248;28;20026;-85
2022/10/26 00:31:58;;;;;;;2.05;1.17;;;;;;;;;;4950885;28;20043;-85
2022/10/26 00:34:24;;;;;;;3.58;1.52;;;;;;;;;;4968455;28;20054;-86
2022/10/26 00:36:50;;;;;;;4.45;1.25;;;;;;;;;;4973738;28;20475;-85
2022/10/26 00:39:15;;;;;;;2.47;1.33;;;;;;;;;;4972963;28;20027;-84
2022/10/26 00:41:41;;;;;;;2.10;1.63;;;;;;;;;;4974508;28;20554;-86
2022/10/26 00:44:43;;;;;;;1.58;1.23;;;;;;;;;;4968726;28;20026;-86
2022/10/26 00:47:12;;;;;;;2.08;0.85;;;;;;;;;;4970738;28;20420;-87
2022/10/26 00:49:37;;;;;;;2.85;1.40;;;;;;;;;;4971562;28;20030;-86
2022/10/26 00:52:03;;;;;;;4.43;1.38;;;;;;;;;;4966854;28;20034;-85
2022/10/26 00:54:29;;;;;;;0.75;0.65;;;;;;;;;;4973907;28;20026;-86
2022/10/26 00:56:54;;;;;;;1.90;0.90;;;;;;;;;;4972832;28;20093;-85
2022/10/26 00:59:20;;;;;;;1.23;0.77;;;;;;;;;;4970689;28;20391;-87
2022/10/26 01:01:47;;;;;;;1.42;0.80;;;;;;;;;;4973667;28;20463;-85
2022/10/26 01:04:13;;;;;;;2.10;0.95;;;;;;;;;;4969572;28;20106;-85
2022/10/26 01:06:41;;;;;;;2.20;1.27;;;;;;;;;;4968910;28;20038;-85
2022/10/26 01:09:06;;;;;;;4.22;1.13;;;;;;;;;;4970634;28;20031;-84
2022/10/26 01:11:32;;;;;;;1.75;0.63;;;;;;;;;;4967815;28;20031;-85
2022/10/26 01:14:00;;;;;;;2.80;1.13;;;;;;;;;;4969142;28;20491;-86
2022/10/26 01:16:51;;;;;;;1.27;0.65;;;;;;;;;;4969237;28;20027;-84
2022/10/26 01:19:30;;;;;;;2.05;0.82;;;;;;;;;;4966693;28;20077;-86
2022/10/26 01:21:56;;;;;;;1.13;0.75;;;;;;;;;;4953110;28;20041;-84
2022/10/26 01:24:34;;;;;;;0.82;0.52;;;;;;;;;;4970797;28;20118;-84
2022/10/26 01:27:05;;;;;;;0.98;0.75;;;;;;;;;;4971340;28;20712;-85
2022/10/26 01:29:34;;;;;;;0.93;0.63;;;;;;;;;;4969943;28;20483;-85
2022/10/26 01:32:07;;;;;;;2.20;0.63;;;;;;;;;;4967328;28;20066;-86
2022/10/26 01:34:47;;;;;;;1.77;0.85;;;;;;;;;;4966270;28;20476;-82
2022/10/26 01:37:19;;;;;;;1.17;0.82;;;;;;;;;;4967317;28;20872;-86
2022/10/26 01:39:48;;;;;;;1.23;0.60;;;;;;;;;;4968110;28;20097;-85
2022/10/26 01:42:16;;;;;;;0.52;0.40;;;;;;;;;;4975333;28;20022;-85
2022/10/26 01:44:51;;;;;;;1.88;0.80;;;;;;;;;;4969489;28;20050;-85
2022/10/26 01:47:19;;;;;;;0.98;0.70;;;;;;;;;;4970618;28;20042;-84
2022/10/26 01:49:51;;;;;;;1.45;0.90;;;;;;;;;;4976482;28;20034;-85
2022/10/26 01:52:18;;;;;;;0.77;0.70;;;;;;;;;;4977275;28;20049;-84
2022/10/26 01:54:43;;;;;;;3.30;1.30;;;;;;;;;;4971914;28;20023;-85
2022/10/26 01:57:12;;;;;;;1.35;0.98;;;;;;;;;;4973161;28;21183;-85
2022/10/26 02:00:08;;;;;;;4.20;1.35;;;;;;;;;;4974055;28;20031;-86
2022/10/26 02:02:58;;;;;;;2.13;0.77;;;;;;;;;;4973929;28;20399;-85
2022/10/26 02:05:35;;;;;;;2.00;1.05;;;;;;;;;;4973423;28;20031;-85
2022/10/26 02:08:04;;;;;;;0.90;0.68;;;;;;;;;;4979218;28;20552;-87
2022/10/26 02:10:59;;;;;;;0.70;0.50;;;;;;;;;;4975878;28;20023;-84
2022/10/26 02:13:46;;;;;;;0.93;0.70;;;;;;;;;;4976050;28;20545;-86
2022/10/26 02:16:18;;;;;;;3.65;0.63;;;;;;;;;;4972907;28;20059;-86
2022/10/26 02:19:22;;;;;;;0.95;0.70;;;;;;;;;;4965573;28;20015;-84
2022/10/26 02:21:52;;;;;;;1.63;1.42;;;;;;;;;;4971960;28;20052;-85
2022/10/26 02:24:19;;;;;;;1.55;1.00;;;;;;;;;;4970967;28;20042;-85
2022/10/26 02:26:47;;;;;;;5.18;1.23;;;;;;;;;;4975428;28;20081;-86
2022/10/26 02:29:17;;;;;;;0.82;0.70;;;;;;;;;;4971717;28;20061;-84
2022/10/26 02:31:44;;;;;;;0.52;0.40;;;;;;;;;;4977680;28;20039;-85
2022/10/26 02:34:12;;;;;;;4.55;1.10;;;;;;;;;;4969651;28;20035;-85
2022/10/26 02:36:41;;;;;;;0.98;0.77;;;;;;;;;;4979622;28;20029;-83
2022/10/26 02:39:09;;;;;;;3.33;1.50;;;;;;;;;;4966223;28;20058;-85
2022/10/26 02:41:37;;;;;;;1.33;1.13;;;;;;;;;;4973900;28;20034;-87
2022/10/26 02:44:24;;;;;;;2.97;0.85;;;;;;;;;;4974405;28;20023;-86
2022/10/26 02:46:50;;;;;;;2.53;1.00;;;;;;;;;;4970358;28;20037;-85
2022/10/26 02:49:16;;;;;;;0.60;0.50;;;;;;;;;;4976410;28;20159;-87
2022/10/26 02:51:45;;;;;;;1.20;0.52;;;;;;;;;;4975860;28;20034;-85
2022/10/26 02:54:29;;;;;;;1.67;0.93;;;;;;;;;;4972396;28;20475;-85
2022/10/26 02:57:02;;;;;;;1.20;0.63;;;;;;;;;;4971230;28;20031;-85
2022/10/26 02:59:33;;;;;;;2.88;0.80;;;;;;;;;;4999379;28;20026;-85
2022/10/26 03:01:59;;;;;;;0.95;0.80;;;;;;;;;;4988178;28;20126;-85
2022/10/26 03:04:29;;;;;;;0.47;0.38;;;;;;;;;;4994723;28;20101;-86
2022/10/26 03:06:55;;;;;;;0.32;0.22;;;;;;;;;;4993263;28;20057;-85
2022/10/26 03:09:21;;;;;;;1.35;0.90;;;;;;;;;;4989447;28;20092;-87
2022/10/26 03:11:46;;;;;;;0.57;0.57;;;;;;;;;;5004480;28;20084;-87
2022/10/26 03:14:11;;;;;;;4.82;1.10;;;;;;;;;;4988584;28;20494;-87
2022/10/26 03:16:37;;;;;;;1.20;0.70;;;;;;;;;;4991895;28;20052;-88
2022/10/26 03:19:02;;;;;;;0.85;0.60;;;;;;;;;;4987118;28;20035;-88
2022/10/26 03:21:27;;;;;;;0.77;0.77;;;;;;;;;;4984367;28;20029;-88
2022/10/26 03:23:53;;;;;;;1.92;0.80;;;;;;;;;;4986174;28;20049;-86
2022/10/26 03:26:19;;;;;;;4.18;1.10;;;;;;;;;;4991779;28;20027;-86
2022/10/26 03:28:44;;;;;;;1.80;1.13;;;;;;;;;;4986737;28;20383;-87
2022/10/26 03:31:10;;;;;;;1.67;1.15;;;;;;;;;;4988070;28;20034;-84
2022/10/26 03:33:35;;;;;;;3.33;1.15;;;;;;;;;;4993794;28;20015;-85
2022/10/26 03:36:01;;;;;;;7.53;2.30;;;;;;;;;;4984508;28;20031;-85
2022/10/26 03:38:26;;;;;;;1.77;1.20;;;;;;;;;;4986595;28;20116;-87
2022/10/26 03:40:52;;;;;;;1.00;0.82;;;;;;;;;;4985797;28;20030;-88
2022/10/26 03:43:17;;;;;;;1.23;0.70;;;;;;;;;;4983580;28;20101;-87
2022/10/26 03:45:43;;;;;;;2.92;1.58;;;;;;;;;;5002678;28;20014;-87
2022/10/26 03:48:10;;;;;;;5.38;1.48;;;;;;;;;;4987774;28;20110;-87
2022/10/26 03:50:35;;;;;;;1.70;0.93;;;;;;;;;;4990043;28;20422;-90
2022/10/26 03:53:01;;;;;;;3.47;1.10;;;;;;;;;;5000722;28;20027;-87
2022/10/26 03:55:26;;;;;;;3.30;0.98;;;;;;;;;;4991300;28;20035;-85
2022/10/26 03:57:55;;;;;;;2.10;1.17;;;;;;;;;;4980230;28;20038;-88
2022/10/26 04:00:20;;;;;;;1.73;0.68;;;;;;;;;;4971011;28;20432;-86
2022/10/26 04:02:56;;;;;;;0.85;0.75;;;;;;;;;;4974319;28;20110;-87
2022/10/26 04:05:23;;;;;;;1.08;0.47;;;;;;;;;;4972897;28;20034;-87
2022/10/26 04:07:59;;;;;;;2.05;1.23;;;;;;;;;;4969503;28;20046;-86
2022/10/26 04:10:26;;;;;;;1.45;0.80;;;;;;;;;;4973985;28;20030;-87
2022/10/26 04:12:53;;;;;;;8.65;1.05;;;;;;;;;;4973934;28;20110;-85
2022/10/26 04:15:19;;;;;;;0.93;0.73;;;;;;;;;;4970692;28;20113;-85
2022/10/26 04:17:45;;;;;;;5.25;0.85;;;;;;;;;;4975829;28;20134;-84
2022/10/26 04:20:11;;;;;;;1.70;1.08;;;;;;;;;;4972197;28;20031;-84
2022/10/26 04:22:36;;;;;;;1.25;0.80;;;;;;;;;;4971507;28;20057;-84
2022/10/26 04:25:03;;;;;;;0.70;0.70;;;;;;;;;;4972559;28;20027;-88
2022/10/26 04:27:29;;;;;;;1.83;1.13;;;;;;;;;;4971673;28;20030;-85
2022/10/26 04:30:04;;;;;;;0.98;0.68;;;;;;;;;;4970209;28;20023;-86
2022/10/26 04:32:29;;;;;;;2.47;1.20;;;;;;;;;;4972526;28;20031;-84
2022/10/26 04:34:55;;;;;;;1.48;0.80;;;;;;;;;;4972033;28;20034;-86
2022/10/26 04:37:20;;;;;;;0.85;0.63;;;;;;;;;;4972062;28;20026;-84
2022/10/26 04:39:46;;;;;;;1.30;0.80;;;;;;;;;;4970945;28;20044;-86
2022/10/26 04:42:11;;;;;;;1.02;0.80;;;;;;;;;;4976932;28;20034;-82
2022/10/26 04:44:36;;;;;;;2.88;1.00;;;;;;;;;;4970912;28;20034;-85
2022/10/26 04:47:02;;;;;;;1.33;0.70;;;;;;;;;;4971548;28;20125;-83
2022/10/26 04:49:27;;;;;;;1.23;0.93;;;;;;;;;;4972093;28;20019;-86
2022/10/26 04:51:52;;;;;;;1.40;0.98;;;;;;;;;;4974776;28;20031;-85
2022/10/26 04:54:18;;;;;;;1.05;0.60;;;;;;;;;;4974274;28;20411;-83
2022/10/26 04:56:43;;;;;;;3.20;1.15;;;;;;;;;;4972781;28;20026;-86
2022/10/26 04:59:09;;;;;;;1.67;0.93;;;;;;;;;;4964772;28;20079;-85
2022/10/26 05:01:34;;;;;;;1.55;0.70;;;;;;;;;;4969120;28;20042;-85
2022/10/26 05:04:00;;;;;;;0.98;0.57;;;;;;;;;;4973084;28;20038;-84
2022/10/26 05:06:25;;;;;;;1.48;0.85;;;;;;;;;;4971202;28;20081;-85
2022/10/26 05:08:50;;;;;;;0.98;0.73;;;;;;;;;;4979013;28;20093;-85
2022/10/26 05:11:16;;;;;;;1.02;0.80;;;;;;;;;;4965688;28;20394;-85
2022/10/26 05:13:41;;;;;;;5.68;0.85;;;;;;;;;;4971220;28;20062;-86
2022/10/26 05:16:07;;;;;;;0.65;0.57;;;;;;;;;;4973530;28;20027;-85
2022/10/26 05:18:33;;;;;;;2.20;0.85;;;;;;;;;;4972452;28;20023;-85
2022/10/26 05:20:58;;;;;;;1.33;0.88;;;;;;;;;;4969138;28;20095;-86
2022/10/26 05:23:24;;;;;;;1.40;0.85;;;;;;;;;;4975321;28;20057;-87
2022/10/26 05:25:49;;;;;;;0.82;0.52;;;;;;;;;;4966166;28;20035;-85
2022/10/26 05:28:16;;;;;;;1.15;0.95;;;;;;;;;;4976963;28;20382;-85
2022/10/26 05:30:43;;;;;;;3.42;1.35;;;;;;;;;;4975443;28;20096;-84
2022/10/26 05:33:11;;;;;;;2.88;1.30;;;;;;;;;;4977476;28;20130;-85
2022/10/26 05:35:36;;;;;;;1.75;1.13;;;;;;;;;;4952684;28;20471;-85
2022/10/26 05:38:08;;;;;;;2.08;1.40;;;;;;;;;;4962181;28;20062;-85
2022/10/26 05:40:34;;;;;;;1.92;0.95;;;;;;;;;;4975552;28;20023;-85
2022/10/26 05:43:03;;;;;;;1.58;0.93;;;;;;;;;;4972450;28;20038;-85
2022/10/26 05:45:29;;;;;;;1.63;1.10;;;;;;;;;;4972866;28;20383;-84
2022/10/26 05:47:54;;;;;;;1.00;0.65;;;;;;;;;;4964935;28;20031;-84
2022/10/26 05:50:19;;;;;;;1.08;0.82;;;;;;;;;;4965779;28;20042;-84
2022/10/26 05:52:46;;;;;;;9.95;1.05;;;;;;;;;;4967353;28;20085;-84
2022/10/26 05:55:17;;;;;;;1.60;1.30;;;;;;;;;;4973305;28;20426;-85
2022/10/26 05:57:43;;;;;;;1.83;1.30;;;;;;;;;;4973559;28;20495;-85
2022/10/26 06:00:14;;;;;;;1.08;0.75;;;;;;;;;;4968915;28;20046;-85
2022/10/26 06:02:51;;;;;;;6.05;1.15;;;;;;;;;;4964574;28;20113;-85
2022/10/26 06:05:22;;;;;;;1.13;0.93;;;;;;;;;;4962926;28;20407;-86
2022/10/26 06:07:48;;;;;;;1.80;1.17;;;;;;;;;;4976164;28;20480;-84
2022/10/26 06:10:14;;;;;;;1.98;1.55;;;;;;;;;;4965074;28;20027;-86
2022/10/26 06:12:47;;;;;;;2.63;1.40;;;;;;;;;;4968509;28;20083;-86
2022/10/26 06:50:38;;;;;;;1.00;0.90;;;;;;;;;;5013771;28;20450;-84
2022/10/26 06:53:09;;;;;;;5.93;3.17;;;;;;;;;;5010972;28;20026;-85
2022/10/26 06:55:46;;;;;;;9.40;2.85;;;;;;;;;;5010250;28;20157;-84
2022/10/26 06:58:19;;;;;;;2.15;1.38;;;;;;;;;;5011555;28;20184;-85
2022/10/26 07:00:47;;;;;;;1.60;0.88;;;;;;;;;;5034990;28;20032;-85
2022/10/26 07:03:13;;;;;;;1.20;0.98;;;;;;;;;;5033424;28;20178;-86
2022/10/26 07:05:38;;;;;;;2.20;1.20;;;;;;;;;;5033627;28;20545;-86
2022/10/26 07:08:04;;;;;;;2.65;1.42;;;;;;;;;;5017564;28;20033;-84
2022/10/26 07:10:30;;;;;;;1.92;1.20;;;;;;;;;;5036509;28;20026;-85
2022/10/26 07:12:55;;;;;;;1.90;1.30;;;;;;;;;;5035551;28;20025;-87
2022/10/26 07:15:21;;;;;;;3.40;1.35;;;;;;;;;;5019701;28;20452;-86
2022/10/26 07:17:48;;;;;;;2.08;0.98;;;;;;;;;;5019877;28;20058;-86
2022/10/26 07:20:14;;;;;;;2.92;0.82;;;;;;;;;;5034613;28;20370;-87
2022/10/26 07:22:41;;;;;;;1.88;1.30;;;;;;;;;;5036532;28;20028;-86
2022/10/26 07:25:07;;;;;;;2.45;1.13;;;;;;;;;;5036007;28;20036;-86
2022/10/26 07:27:33;;;;;;;1.33;0.85;;;;;;;;;;5017640;28;20041;-85
2022/10/26 07:29:59;;;;;;;3.83;1.45;;;;;;;;;;5018023;28;20021;-87
2022/10/26 07:32:24;;;;;;;2.25;1.38;;;;;;;;;;5038657;28;20045;-86
2022/10/26 07:34:49;;;;;;;2.75;1.55;;;;;;;;;;5052710;28;20028;-86
2022/10/26 07:37:15;;;;;;;7.30;1.35;;;;;;;;;;5053995;28;20043;-86
2022/10/26 07:39:40;;;;;;;2.35;1.27;;;;;;;;;;5053951;28;20028;-86
2022/10/26 07:42:06;;;;;;;3.33;2.05;;;;;;;;;;5037187;28;20040;-87
2022/10/26 07:44:31;;;;;;;4.32;1.90;;;;;;;;;;5050737;28;20699;-83
2022/10/26 07:46:57;;;;;;;2.08;1.20;;;;;;;;;;5052541;28;20035;-86
2022/10/26 07:49:22;;;;;;;1.77;1.23;;;;;;;;;;5035099;28;20079;-87
2022/10/26 07:51:48;;;;;;;1.45;0.85;;;;;;;;;;5056178;28;20488;-85
2022/10/26 07:54:13;;;;;;;2.17;1.23;;;;;;;;;;5053784;28;20035;-85
2022/10/26 07:56:38;;;;;;;2.10;1.15;;;;;;;;;;5053239;28;20143;-87
2022/10/26 07:59:04;;;;;;;6.45;1.80;;;;;;;;;;5030523;28;20355;-86
2022/10/26 08:01:29;;;;;;;2.47;1.85;;;;;;;;;;5056981;28;20373;-85
2022/10/26 08:03:55;;;;;;;5.43;2.67;;;;;;;;;;5054349;28;20035;-86
2022/10/26 08:06:22;;;;;;;2.70;1.40;;;;;;;;;;5054708;28;20024;-84
2022/10/26 08:08:47;;;;;;;3.88;2.08;;;;;;;;;;5053998;28;20465;-86
2022/10/26 08:11:13;;;;;;;7.30;3.47;;;;;;;;;;5037100;28;20040;-85
2022/10/26 08:13:39;;;;;;;5.82;2.40;;;;;;;;;;5053555;28;20526;-85
2022/10/26 08:16:05;;;;;;;5.70;3.10;;;;;;;;;;5052497;28;20033;-85
2022/10/26 08:18:31;;;;;;;3.55;1.90;;;;;;;;;;5053478;28;20493;-86
2022/10/26 08:21:04;;;;;;;2.55;1.80;;;;;;;;;;5053301;28;20377;-86
2022/10/26 08:23:30;;;;;;;3.25;1.45;;;;;;;;;;5051377;28;20021;-86
2022/10/26 08:26:00;;;;;;;2.10;1.25;;;;;;;;;;5052117;28;20028;-85
2022/10/26 08:28:26;;;;;;;3.53;1.77;;;;;;;;;;5053576;28;20029;-85
2022/10/26 08:30:51;;;;;;;2.65;1.25;;;;;;;;;;5055540;28;20033;-85
2022/10/26 08:33:17;;;;;;;2.22;1.30;;;;;;;;;;5052288;28;20528;-85
2022/10/26 08:35:42;;;;;;;1.23;1.13;;;;;;;;;;5053294;28;20021;-85
2022/10/26 08:38:08;;;;;;;2.65;1.25;;;;;;;;;;5054116;28;20434;-85
2022/10/26 08:40:37;;;;;;;2.92;1.63;;;;;;;;;;5051767;28;20029;-85
2022/10/26 08:43:38;;;;;;;2.67;1.35;;;;;;;;;;5034299;28;20078;-85
2022/10/26 08:46:18;;;;;;;2.38;1.60;;;;;;;;;;5047217;28;20033;-85
2022/10/26 08:48:53;;;;;;;3.72;1.92;;;;;;;;;;5051585;28;20496;-84
2022/10/26 08:51:26;;;;;;;3.47;2.03;;;;;;;;;;5051200;28;20028;-85
2022/10/26 08:54:13;;;;;;;2.22;1.08;;;;;;;;;;5050079;28;20112;-86
2022/10/26 08:56:46;;;;;;;2.15;1.02;;;;;;;;;;5051242;28;20049;-86
2022/10/26 08:59:33;;;;;;;3.67;1.13;;;;;;;;;;5051043;28;20436;-85
2022/10/26 09:02:01;;;;;;;5.75;2.20;;;;;;;;;;5035162;28;20059;-84
2022/10/26 09:04:28;;;;;;;3.53;1.33;;;;;;;;;;5050582;28;20465;-85
2022/10/26 09:07:18;;;;;;;1.35;0.93;;;;;;;;;;5052878;28;20052;-85
2022/10/26 09:10:10;;;;;;;4.38;1.90;;;;;;;;;;5034732;28;20075;-86
2022/10/26 09:37:34;;;;;;;2.95;1.77;;;;;;;;;;4872181;23;20038;-82
2022/10/26 09:44:38;;;;;;;2.25;1.05;;;;;;;;;;4936047;28;20054;-86
2022/10/26 09:54:45;;;;;;;0.70;0.60;;;;;;;;;;4955120;28;20113;-86
2022/10/26 09:57:15;;;;;;;2.17;1.55;;;;;;;;;;4935278;28;20118;-84
2022/10/26 09:59:40;;;;;;;;;;;;;;;;;;4955638;28;20459;-86
2022/10/26 10:02:31;;;;;;;1.27;0.85;;;;;;;;;;4993788;28;19999;-85
2022/10/26 10:04:57;;;;;;;1.85;0.85;;;;;;;;;;5016303;28;20091;-86
2022/10/26 10:07:22;;;;;;;1.13;0.68;;;;;;;;;;5016305;28;20445;-85
2022/10/26 10:10:26;;;;;;;1.48;0.70;;;;;;;;;;5016698;28;20089;-84
2022/10/26 10:12:52;;;;;;;2.08;0.80;;;;;;;;;;4973851;28;20046;-87
2022/10/26 10:15:26;;;;;;;2.42;1.20;;;;;;;;;;4975111;28;20034;-84
2022/10/26 10:17:56;;;;;;;1.38;0.55;;;;;;;;;;5001322;28;20533;-85
2022/10/26 10:20:29;;;;;;;1.98;0.90;;;;;;;;;;5032298;28;20029;-84
2022/10/26 10:22:59;;;;;;;1.92;1.15;;;;;;;;;;5034128;28;20028;-86
2022/10/26 10:25:31;;;;;;;;;;;;;;;;;;5030533;28;20037;-85
2022/10/26 10:27:56;;;;;;;1.02;0.75;;;;;;;;;;5035297;28;19952;-84
2022/10/26 10:30:28;;;;;;;1.17;0.68;;;;;;;;;;5035137;28;20457;-85
2022/10/26 10:33:09;;;;;;;1.42;0.70;;;;;;;;;;5034193;28;20048;-84
2022/10/26 10:35:35;;;;;;;1.42;0.85;;;;;;;;;;5018402;28;20048;-85
2022/10/26 10:38:01;;;;;;;1.35;0.98;;;;;;;;;;5031489;28;20053;-84
2022/10/26 10:40:30;;;;;;;1.02;0.60;;;;;;;;;;5032136;28;20056;-85
2022/10/26 10:43:11;;;;;;;2.10;0.73;;;;;;;;;;5034033;28;20052;-84
2022/10/26 10:45:37;;;;;;;0.90;0.55;;;;;;;;;;5027461;28;20055;-85
2022/10/26 10:48:11;;;;;;;4.57;0.75;;;;;;;;;;5035429;28;20056;-85
2022/10/26 10:50:38;;;;;;;1.35;0.80;;;;;;;;;;5029741;28;20029;-84
2022/10/26 10:53:28;;;;;;;2.00;0.80;;;;;;;;;;5034504;28;20037;-86
2022/10/26 10:56:02;;;;;;;1.58;0.90;;;;;;;;;;5029811;28;20029;-85
2022/10/26 10:58:57;;;;;;;1.88;0.90;;;;;;;;;;5032279;28;20025;-85
2022/10/26 11:01:29;;;;;;;2.75;0.93;;;;;;;;;;4998558;28;20051;-84
2022/10/26 11:04:15;;;;;;;1.35;1.08;;;;;;;;;;5027848;28;20393;-84
2022/10/26 11:06:42;;;;;;;1.20;0.60;;;;;;;;;;5025350;28;20384;-84
2022/10/26 11:09:18;;;;;;;1.55;1.00;;;;;;;;;;5031469;28;20026;-87
2022/10/26 11:11:51;;;;;;;2.22;0.90;;;;;;;;;;5032256;28;20033;-82
2022/10/26 11:14:31;;;;;;;2.08;1.05;;;;;;;;;;5031468;28;20053;-83
2022/10/26 11:17:18;;;;;;;0.70;0.70;;;;;;;;;;5033540;28;20033;-86
2022/10/26 11:20:07;;;;;;;1.00;0.70;;;;;;;;;;5030040;28;20029;-84
2022/10/26 11:22:37;;;;;;;1.42;0.85;;;;;;;;;;5026765;28;20344;-84
2022/10/26 11:25:06;;;;;;;0.93;0.70;;;;;;;;;;5035303;28;20029;-85
2022/10/26 11:27:42;;;;;;;0.87;0.57;;;;;;;;;;5036402;28;20412;-85
2022/10/26 11:30:21;;;;;;;1.25;0.73;;;;;;;;;;5034099;28;20029;-86
2022/10/26 11:33:19;;;;;;;1.27;0.90;;;;;;;;;;5029081;28;20037;-84
2022/10/26 11:35:57;;;;;;;0.65;0.50;;;;;;;;;;5022009;28;20045;-84
2022/10/26 11:38:30;;;;;;;0.93;0.60;;;;;;;;;;5029608;28;20032;-84
2022/10/26 11:41:00;;;;;;;2.88;1.63;;;;;;;;;;5035035;28;20120;-84
2022/10/26 11:43:45;;;;;;;1.65;0.70;;;;;;;;;;5032688;28;20017;-85
2022/10/26 11:46:27;;;;;;;1.98;0.80;;;;;;;;;;5030838;28;20104;-85
2022/10/26 11:49:04;;;;;;;1.30;0.60;;;;;;;;;;5015024;28;20025;-84
2022/10/26 11:51:51;;;;;;;0.85;0.43;;;;;;;;;;5008058;28;20026;-85
2022/10/26 11:54:54;;;;;;;2.42;0.85;;;;;;;;;;5031112;28;20112;-84
2022/10/26 11:57:24;;;;;;;0.60;0.43;;;;;;;;;;5007933;28;20060;-84
2022/10/26 12:00:01;;;;;;;0.75;0.40;;;;;;;;;;5025131;28;20033;-84
2022/10/26 12:02:26;;;;;;;0.30;0.25;;;;;;;;;;5008108;28;20422;-85
2022/10/26 12:04:59;;;;;;;0.98;0.57;;;;;;;;;;5030537;28;20137;-86
2022/10/26 12:07:29;;;;;;;0.63;0.35;;;;;;;;;;5033659;28;20040;-85
2022/10/26 12:09:56;;;;;;;0.20;0.20;;;;;;;;;;5028316;28;20481;-87
2022/10/26 12:12:49;;;;;;;1.63;0.40;;;;;;;;;;5022446;28;20485;-87
2022/10/26 12:15:25;;;;;;;0.47;0.38;;;;;;;;;;5022839;28;20084;-85
2022/10/26 12:18:00;;;;;;;0.80;0.32;;;;;;;;;;5032977;28;20057;-84
2022/10/26 12:20:47;;;;;;;0.47;0.38;;;;;;;;;;5031747;28;20025;-86
2022/10/26 12:23:12;;;;;;;1.08;0.30;;;;;;;;;;5030322;28;20057;-86
2022/10/26 12:25:38;;;;;;;0.32;0.30;;;;;;;;;;5033854;28;20044;-86
2022/10/26 12:28:04;;;;;;;0.28;0.28;;;;;;;;;;5014221;28;20036;-88
2022/10/26 12:30:40;;;;;;;0.63;0.28;;;;;;;;;;5013196;28;20389;-85
2022/10/26 12:48:01;;;;;;;3.80;0.30;;;;;;;;;;4913891;29;20544;-87
2022/10/26 12:50:27;;;;;;;1.65;0.60;;;;;;;;;;4902405;29;20047;-85
2022/10/26 12:53:00;;;;;;;0.13;0.13;;;;;;;;;;4935230;29;20039;-90
2022/10/26 12:55:55;;;;;;;1.10;0.57;;;;;;;;;;4987367;28;20029;-87
2022/10/26 12:58:38;;;;;;;0.20;0.20;;;;;;;;;;5013247;28;20026;-90
2022/10/26 13:01:28;;;;;;;0.43;0.30;;;;;;;;;;5033855;28;20107;-88
2022/10/26 13:04:03;;;;;;;0.77;0.35;;;;;;;;;;5033278;28;20104;-88
2022/10/26 13:06:53;;;;;;;0.57;0.38;;;;;;;;;;5020675;28;20097;-87
2022/10/26 13:09:24;;;;;;;;;;;;;;;;;;5011270;28;20018;-87
2022/10/26 13:11:52;;;;;;;0.47;0.35;;;;;;;;;;5015163;28;19920;-86
2022/10/26 13:14:25;;;;;;;0.63;0.40;;;;;;;;;;5015930;28;20727;-85
2022/10/26 13:16:52;;;;;;;0.57;0.45;;;;;;;;;;5036532;28;20072;-86
2022/10/26 13:19:29;;;;;;;0.10;0.10;;;;;;;;;;5033683;28;20113;-87
2022/10/26 13:21:57;;;;;;;0.30;0.30;;;;;;;;;;5033345;28;20469;-87
2022/10/26 13:24:26;;;;;;;2.25;0.40;;;;;;;;;;5036818;28;20033;-87
2022/10/26 13:27:04;;;;;;;1.05;0.50;;;;;;;;;;5015107;28;20412;-86
2022/10/26 13:29:30;;;;;;;0.70;0.40;;;;;;;;;;5026758;28;20030;-86
2022/10/26 13:31:56;;;;;;;0.40;0.20;;;;;;;;;;5012391;28;20041;-86
2022/10/26 13:34:25;;;;;;;0.20;0.20;;;;;;;;;;5032576;28;20370;-87
2022/10/26 13:37:17;;;;;;;0.10;0.10;;;;;;;;;;5031908;28;20025;-88
2022/10/26 13:39:45;;;;;;;0.20;0.20;;;;;;;;;;5024175;28;20099;-87
2022/10/26 13:42:26;;;;;;;0.20;0.20;;;;;;;;;;5012798;28;20512;-89
2022/10/26 13:45:11;;;;;;;0.38;0.30;;;;;;;;;;5025991;28;20030;-87
2022/10/26 13:47:56;;;;;;;0.73;0.40;;;;;;;;;;5032838;28;20029;-89
2022/10/26 13:50:25;;;;;;;0.45;0.30;;;;;;;;;;5029491;28;20048;-87
2022/10/26 13:53:00;;;;;;;0.50;0.40;;;;;;;;;;5029812;28;20029;-87
2022/10/26 13:55:30;;;;;;;0.52;0.38;;;;;;;;;;5022671;28;20160;-85
2022/10/26 13:57:58;;;;;;;;;;;;;;;;;;5013836;28;20051;-86
2022/10/26 14:00:23;;;;;;;0.20;0.20;;;;;;;;;;5009826;28;19921;-86
2022/10/26 14:02:49;;;;;;;0.22;0.20;;;;;;;;;;5031238;28;20034;-86
2022/10/26 14:05:16;;;;;;;1.95;0.50;;;;;;;;;;5028516;28;20112;-86
2022/10/26 14:07:47;;;;;;;0.28;0.20;;;;;;;;;;5029938;28;20124;-86
2022/10/26 14:10:36;;;;;;;1.52;0.43;;;;;;;;;;5029500;28;20520;-81
2022/10/26 14:13:06;;;;;;;0.50;0.20;;;;;;;;;;5028115;28;20032;-83
2022/10/26 14:15:33;;;;;;;0.63;0.32;;;;;;;;;;5023941;28;20377;-81
2022/10/26 14:18:00;;;;;;;1.08;0.38;;;;;;;;;;5027229;28;20548;-82
2022/10/26 14:20:28;;;;;;;0.85;0.30;;;;;;;;;;5029618;28;20049;-81
2022/10/26 14:22:54;;;;;;;0.20;0.20;;;;;;;;;;5028477;28;20030;-82
2022/10/26 14:25:28;;;;;;;0.30;0.30;;;;;;;;;;5025969;28;20042;-82
2022/10/26 14:27:54;;;;;;;0.77;0.25;;;;;;;;;;5030265;28;20061;-81
2022/10/26 14:30:31;;;;;;;0.40;0.30;;;;;;;;;;5027863;28;20486;-81
2022/10/26 14:32:57;;;;;;;2.72;0.47;;;;;;;;;;5026133;28;20425;-81
2022/10/26 14:35:36;;;;;;;0.98;0.30;;;;;;;;;;5029783;28;20036;-81
2022/10/26 14:38:23;;;;;;;0.32;0.30;;;;;;;;;;5007591;28;20029;-82
2022/10/26 14:40:50;;;;;;;1.05;0.50;;;;;;;;;;5033682;28;20029;-81
2022/10/26 14:43:21;;;;;;;1.75;0.55;;;;;;;;;;5034936;28;20029;-81
2022/10/26 14:45:49;;;;;;;1.17;0.43;;;;;;;;;;5035446;28;20040;-82
2022/10/26 14:48:28;;;;;;;0.45;0.20;;;;;;;;;;5037134;28;20020;-81
2022/10/26 14:51:10;;;;;;;4.50;0.45;;;;;;;;;;5045592;28;20039;-81
2022/10/26 14:53:38;;;;;;;0.50;0.50;;;;;;;;;;5037821;28;20091;-82
2022/10/26 14:56:16;;;;;;;2.17;0.60;;;;;;;;;;5011083;28;20054;-81
2022/10/26 14:58:43;;;;;;;0.98;0.35;;;;;;;;;;5038487;28;20017;-81
2022/10/26 15:01:21;;;;;;;0.65;0.38;;;;;;;;;;5034610;28;20036;-81
2022/10/26 15:04:04;;;;;;;0.85;0.30;;;;;;;;;;5040064;28;20082;-81
2022/10/26 15:06:36;;;;;;;0.20;0.20;;;;;;;;;;5037938;28;20353;-81
2022/10/26 15:09:03;;;;;;;1.20;0.47;;;;;;;;;;5038130;28;20119;-82
2022/10/26 15:11:31;;;;;;;0.68;0.40;;;;;;;;;;5039574;28;20027;-82
2022/10/26 15:13:57;;;;;;;1.00;0.43;;;;;;;;;;5037527;28;20032;-82
2022/10/26 15:16:25;;;;;;;0.30;0.30;;;;;;;;;;5039049;28;20033;-80
2022/10/26 15:19:05;;;;;;;0.20;0.20;;;;;;;;;;5031130;28;20018;-81
2022/10/26 15:21:41;;;;;;;;;;;;;;;;;;5034899;28;20121;-81
2022/10/26 15:24:28;;;;;;;0.40;0.30;;;;;;;;;;5016851;28;19912;-81
2022/10/26 15:26:54;;;;;;;0.68;0.50;;;;;;;;;;5031691;28;20022;-81
2022/10/26 15:29:43;;;;;;;1.08;0.40;;;;;;;;;;5037341;28;20043;-82
2022/10/26 15:32:27;;;;;;;1.65;1.20;;;;;;;;;;5033309;28;20043;-81
2022/10/26 15:35:17;;;;;;;0.43;0.40;;;;;;;;;;5035550;28;20087;-85
2022/10/26 15:37:46;;;;;;;0.28;0.28;;;;;;;;;;5037163;28;20418;-85
2022/10/26 15:40:12;;;;;;;0.00;0.00;;;;;;;;;;5008151;28;20383;-86
2022/10/26 15:42:39;;;;;;;0.65;0.35;;;;;;;;;;5029458;28;20267;-86
2022/10/26 15:45:21;;;;;;;0.15;0.15;;;;;;;;;;5032581;28;20033;-83
2022/10/26 15:47:48;;;;;;;0.30;0.15;;;;;;;;;;5028431;28;20029;-81
2022/10/26 15:50:15;;;;;;;1.38;0.40;;;;;;;;;;5031856;28;20117;-81
2022/10/26 15:52:42;;;;;;;0.17;0.10;;;;;;;;;;5028543;28;20022;-82
2022/10/26 15:55:08;;;;;;;0.60;0.38;;;;;;;;;;5032982;28;20035;-83
2022/10/26 15:57:33;;;;;;;0.20;0.20;;;;;;;;;;5032921;28;20030;-86
2022/10/26 15:59:59;;;;;;;1.33;0.77;;;;;;;;;;5009057;28;20048;-88
2022/10/26 16:02:24;;;;;;;0.28;0.17;;;;;;;;;;5032434;28;20051;-86
2022/10/26 16:04:49;;;;;;;0.57;0.43;;;;;;;;;;5032886;28;20159;-86
2022/10/26 16:07:15;;;;;;;0.63;0.22;;;;;;;;;;5027829;28;20035;-88
2022/10/26 16:09:43;;;;;;;0.13;0.13;;;;;;;;;;5012411;28;20018;-86
2022/10/26 16:12:12;;;;;;;0.40;0.28;;;;;;;;;;5032510;28;20033;-88
2022/10/26 16:14:39;;;;;;;1.20;0.50;;;;;;;;;;5008648;28;20477;-86
2022/10/26 16:17:05;;;;;;;1.27;0.22;;;;;;;;;;5030504;28;20485;-88
2022/10/26 16:19:33;;;;;;;0.85;0.30;;;;;;;;;;5030899;28;20410;-87
2022/10/26 16:21:58;;;;;;;1.00;0.47;;;;;;;;;;5029717;28;20029;-87
2022/10/26 16:24:25;;;;;;;0.40;0.40;;;;;;;;;;5015018;28;20492;-87
2022/10/26 16:26:50;;;;;;;1.10;0.68;;;;;;;;;;5016178;28;20033;-87
2022/10/26 16:29:16;;;;;;;0.38;0.30;;;;;;;;;;5027253;28;20021;-86
2022/10/26 16:31:42;;;;;;;0.95;0.57;;;;;;;;;;5012181;28;20057;-84
2022/10/26 16:34:07;;;;;;;2.50;1.00;;;;;;;;;;5029663;28;20104;-85